메인 페이지
METAR-TAF:

METAR-TAF

공항 :

Tupelo Regional Airport (C.D. Lemons Field)

투펄로, 미시시피, 미국

위도: 34-16-05N, 경도: 088-46-12W, 고도: 106m

현재 날씨관측

예보는 50분 전, 13:53시(UTC)에 발표되었습니다.
서남서6kt
온도 23°C
습도 78%
기압 1017 hPa
시정: 16.1km
맑음

METAR: KTUP 291353Z 24006KT 10SM CLR 23/19 A3004 RMK AO2 SLP169 T02330189

시각: 09:43 (14:43 UTC)

예보

예보는 3 시간 7분 전, 11:36시(UTC)에 발표되었습니다.
예보 대상 시간: 29일 12시부터 30일 12시까지 (UTC)
kt
시정: 10km
고도 500ft 상공 구름 조금
일시적
29일 12시부터 29일 13시까지 (UTC)
시정: 1.6km
박무
29일 1300시부터 (UTC)
북서4kt
시정: 10km
고도 1800ft 상공 구름 조금
고도 3000ft 상공 구름 보통
29일 2000시부터 (UTC)
서북서6kt
시정: 10km
고도 3500ft 상공 구름 조금
고도 10000ft 상공 구름 보통
시계 내 소나기
29일 2100시부터 (UTC)
북서6kt
시정: 10km
고도 3500ft 상공 구름 조금
고도 10000ft 상공 구름 보통

TAF: KTUP 291136Z 2912/3012 00000KT P6SM FEW005 TEMPO 2912/2913 1SM BR FM291300 31004KT P6SM FEW018 SCT030 FM292000 30006KT P6SM VCSH FEW035 SCT100 FM292100 32006KT P6SM FEW035 SCT100

4,000개 이상의 공항 관측 자료 및 예보 (METAR 및 TAF 보고).

지도상에서 검색 가능한 기상관측소가 노란 점과 빨간 점으로 표시되어 있습니다.

기상관측소 명을 보려면 표시 위로 마우스를 이동하세요.

날씨 관측과 예보를 보려면 클릭하세요.

지도 변경 : 확대하려면 엑스 표시가 있는 녹색 버튼, 축소하려면 빼기 표시가 있는 녹색 버튼, 다음 페이지의 지도를 보려면 녹색 화살표를 클릭하세요.


METAR-TAF: